Portada
METAR-TAF:

METAR-TAF

Aeropuertos :

Tambacounda, Senegal

latitud: 13-46N, longitud: 013-41W, altitud: 49 m

Observación

El informe se hizo hace 1 hora y 29 minutos, a las 03:00 UTC
Viento 6 kt del noreste
Temperatura 25°C
Humedad 22%
Presión 1012 hPa
Visibilidad 10 km o más
sin nubes por debajo de 1500 m y sin presencia de cumulonimbus.

METAR: GOTT 230300Z 04006KT CAVOK 25/02 Q1012

Hora: 04:29 (04:29 UTC)


TAF: falta

Observaciones y pronósticos meteorológicos de más de 4000 aeropuertos (mensajes METAR y TAF).

Los puntos amarillos y rojos representan las estaciones disponibles.

Ponga el ratón en el punto deseado para ver el nombre de la estación.

Haga clic para ver las observaciones y los pronósticos meteorológicos.

Para cambiar el mapa : haga clic en los botones verdes con una cruz de color negro para hacer un zoom, en el botón verde con un guión para alejar o en las flechas verdes para mapas adyacentes.


METAR-TAF: